sensor_id;sensor_type;location;lat;lon;timestamp;temperature;humidity
5200;DHT22;2619;47.868;11.892;2022-09-12T00:00:45;9.10;99.90
5200;DHT22;2619;47.868;11.892;2022-09-12T00:03:10;9.10;99.90
5200;DHT22;2619;47.868;11.892;2022-09-12T00:05:44;9.00;99.90
5200;DHT22;2619;47.868;11.892;2022-09-12T00:08:11;9.00;99.90
5200;DHT22;2619;47.868;11.892;2022-09-12T00:10:38;9.00;99.90
5200;DHT22;2619;47.868;11.892;2022-09-12T00:13:05;8.90;99.90
5200;DHT22;2619;47.868;11.892;2022-09-12T00:15:31;8.80;99.90
5200;DHT22;2619;47.868;11.892;2022-09-12T00:17:56;8.80;99.90
5200;DHT22;2619;47.868;11.892;2022-09-12T00:20:22;8.80;99.90
5200;DHT22;2619;47.868;11.892;2022-09-12T00:22:47;8.80;99.90
5200;DHT22;2619;47.868;11.892;2022-09-12T00:25:13;8.70;99.90
5200;DHT22;2619;47.868;11.892;2022-09-12T00:27:39;8.70;99.90
5200;DHT22;2619;47.868;11.892;2022-09-12T00:30:05;8.60;99.90
5200;DHT22;2619;47.868;11.892;2022-09-12T00:32:30;8.50;99.90
5200;DHT22;2619;47.868;11.892;2022-09-12T00:34:56;8.40;99.90
5200;DHT22;2619;47.868;11.892;2022-09-12T00:37:22;8.40;99.90
5200;DHT22;2619;47.868;11.892;2022-09-12T00:39:48;8.30;99.90
5200;DHT22;2619;47.868;11.892;2022-09-12T00:42:13;8.30;99.90
5200;DHT22;2619;47.868;11.892;2022-09-12T00:44:45;8.30;99.90
5200;DHT22;2619;47.868;11.892;2022-09-12T00:47:21;8.40;99.90
5200;DHT22;2619;47.868;11.892;2022-09-12T00:52:34;8.30;99.90
5200;DHT22;2619;47.868;11.892;2022-09-12T00:55:16;8.30;99.90
5200;DHT22;2619;47.868;11.892;2022-09-12T00:57:51;8.30;99.90
5200;DHT22;2619;47.868;11.892;2022-09-12T01:00:21;8.20;99.90
5200;DHT22;2619;47.868;11.892;2022-09-12T01:02:53;8.20;99.90
5200;DHT22;2619;47.868;11.892;2022-09-12T01:05:20;8.20;99.90
5200;DHT22;2619;47.868;11.892;2022-09-12T01:07:47;8.20;99.90
5200;DHT22;2619;47.868;11.892;2022-09-12T01:10:14;8.20;99.90
5200;DHT22;2619;47.868;11.892;2022-09-12T01:12:42;8.20;99.90
5200;DHT22;2619;47.868;11.892;2022-09-12T01:15:09;8.10;99.90
5200;DHT22;2619;47.868;11.892;2022-09-12T01:23:33;8.30;99.90
5200;DHT22;2619;47.868;11.892;2022-09-12T01:34:19;8.20;99.90
5200;DHT22;2619;47.868;11.892;2022-09-12T01:36:50;8.20;99.90
5200;DHT22;2619;47.868;11.892;2022-09-12T01:39:28;8.10;99.90
5200;DHT22;2619;47.868;11.892;2022-09-12T01:42:03;8.10;99.90
5200;DHT22;2619;47.868;11.892;2022-09-12T01:47:38;8.00;99.90
5200;DHT22;2619;47.868;11.892;2022-09-12T01:50:07;7.90;99.90
5200;DHT22;2619;47.868;11.892;2022-09-12T01:52:38;7.90;99.90
5200;DHT22;2619;47.868;11.892;2022-09-12T01:55:17;8.00;99.90
5200;DHT22;2619;47.868;11.892;2022-09-12T01:57:51;7.90;99.90
5200;DHT22;2619;47.868;11.892;2022-09-12T02:00:19;7.90;99.90
5200;DHT22;2619;47.868;11.892;2022-09-12T02:05:27;7.90;99.90
5200;DHT22;2619;47.868;11.892;2022-09-12T02:10:29;7.90;99.90
5200;DHT22;2619;47.868;11.892;2022-09-12T02:13:03;7.80;99.90
5200;DHT22;2619;47.868;11.892;2022-09-12T02:15:39;7.70;99.90
5200;DHT22;2619;47.868;11.892;2022-09-12T02:18:07;7.70;99.90
5200;DHT22;2619;47.868;11.892;2022-09-12T02:20:38;7.70;99.90
5200;DHT22;2619;47.868;11.892;2022-09-12T02:23:11;7.60;99.90
5200;DHT22;2619;47.868;11.892;2022-09-12T02:25:40;7.60;99.90
5200;DHT22;2619;47.868;11.892;2022-09-12T02:28:14;7.60;99.90
5200;DHT22;2619;47.868;11.892;2022-09-12T02:30:49;7.50;99.90
5200;DHT22;2619;47.868;11.892;2022-09-12T02:33:26;7.50;99.90
5200;DHT22;2619;47.868;11.892;2022-09-12T02:38:52;7.50;99.90
5200;DHT22;2619;47.868;11.892;2022-09-12T02:41:20;7.50;99.90
5200;DHT22;2619;47.868;11.892;2022-09-12T02:43:48;7.40;99.90
5200;DHT22;2619;47.868;11.892;2022-09-12T02:46:42;7.40;99.90
5200;DHT22;2619;47.868;11.892;2022-09-12T02:49:09;7.40;99.90
5200;DHT22;2619;47.868;11.892;2022-09-12T02:51:36;7.40;99.90
5200;DHT22;2619;47.868;11.892;2022-09-12T02:54:02;7.30;99.90
5200;DHT22;2619;47.868;11.892;2022-09-12T02:56:31;7.30;99.90
5200;DHT22;2619;47.868;11.892;2022-09-12T02:59:05;7.30;99.90
5200;DHT22;2619;47.868;11.892;2022-09-12T03:10:46;7.30;99.90
5200;DHT22;2619;47.868;11.892;2022-09-12T03:13:22;7.30;99.90
5200;DHT22;2619;47.868;11.892;2022-09-12T03:15:59;7.30;99.90
5200;DHT22;2619;47.868;11.892;2022-09-12T03:29:24;7.10;99.90
5200;DHT22;2619;47.868;11.892;2022-09-12T03:31:53;7.10;99.90
5200;DHT22;2619;47.868;11.892;2022-09-12T03:34:20;7.10;99.90
5200;DHT22;2619;47.868;11.892;2022-09-12T03:36:46;7.10;99.90
5200;DHT22;2619;47.868;11.892;2022-09-12T03:39:13;7.10;99.90
5200;DHT22;2619;47.868;11.892;2022-09-12T03:41:38;7.10;99.90
5200;DHT22;2619;47.868;11.892;2022-09-12T03:44:04;7.10;99.90
5200;DHT22;2619;47.868;11.892;2022-09-12T03:46:30;7.20;99.90
5200;DHT22;2619;47.868;11.892;2022-09-12T03:48:55;7.10;99.90
5200;DHT22;2619;47.868;11.892;2022-09-12T03:51:21;7.10;99.90
5200;DHT22;2619;47.868;11.892;2022-09-12T03:53:47;7.10;99.90
5200;DHT22;2619;47.868;11.892;2022-09-12T03:56:12;7.00;99.90
5200;DHT22;2619;47.868;11.892;2022-09-12T03:58:39;7.00;99.90
5200;DHT22;2619;47.868;11.892;2022-09-12T04:01:14;6.90;99.90
5200;DHT22;2619;47.868;11.892;2022-09-12T04:03:41;6.90;99.90
5200;DHT22;2619;47.868;11.892;2022-09-12T04:06:09;6.90;99.90
5200;DHT22;2619;47.868;11.892;2022-09-12T04:08:35;6.90;99.90
5200;DHT22;2619;47.868;11.892;2022-09-12T04:11:10;6.90;99.90
5200;DHT22;2619;47.868;11.892;2022-09-12T04:13:36;6.90;99.90
5200;DHT22;2619;47.868;11.892;2022-09-12T04:16:03;6.90;99.90
5200;DHT22;2619;47.868;11.892;2022-09-12T04:18:29;7.00;99.90
5200;DHT22;2619;47.868;11.892;2022-09-12T04:20:55;6.90;99.90
5200;DHT22;2619;47.868;11.892;2022-09-12T04:23:21;6.90;99.90
5200;DHT22;2619;47.868;11.892;2022-09-12T04:25:54;6.80;99.90
5200;DHT22;2619;47.868;11.892;2022-09-12T04:28:20;6.80;99.90
5200;DHT22;2619;47.868;11.892;2022-09-12T04:30:46;6.90;99.90
5200;DHT22;2619;47.868;11.892;2022-09-12T04:33:11;6.80;99.90
5200;DHT22;2619;47.868;11.892;2022-09-12T04:35:37;6.80;99.90
5200;DHT22;2619;47.868;11.892;2022-09-12T04:38:02;6.80;99.90
5200;DHT22;2619;47.868;11.892;2022-09-12T04:40:28;6.70;99.90
5200;DHT22;2619;47.868;11.892;2022-09-12T04:42:54;6.70;99.90
5200;DHT22;2619;47.868;11.892;2022-09-12T04:45:20;6.60;99.90
5200;DHT22;2619;47.868;11.892;2022-09-12T04:47:46;6.70;99.90
5200;DHT22;2619;47.868;11.892;2022-09-12T04:50:12;6.70;99.90
5200;DHT22;2619;47.868;11.892;2022-09-12T04:52:39;6.70;99.90
5200;DHT22;2619;47.868;11.892;2022-09-12T04:55:06;6.80;99.90
5200;DHT22;2619;47.868;11.892;2022-09-12T04:57:31;6.80;99.90
5200;DHT22;2619;47.868;11.892;2022-09-12T04:59:57;6.80;99.90
5200;DHT22;2619;47.868;11.892;2022-09-12T05:02:24;6.90;99.90
5200;DHT22;2619;47.868;11.892;2022-09-12T05:04:50;6.90;99.90
5200;DHT22;2619;47.868;11.892;2022-09-12T05:07:17;7.00;99.90
5200;DHT22;2619;47.868;11.892;2022-09-12T05:09:43;7.00;99.90
5200;DHT22;2619;47.868;11.892;2022-09-12T05:12:09;7.10;99.90
5200;DHT22;2619;47.868;11.892;2022-09-12T05:14:35;7.50;99.90
5200;DHT22;2619;47.868;11.892;2022-09-12T05:17:01;8.00;99.90
5200;DHT22;2619;47.868;11.892;2022-09-12T05:19:29;8.60;99.90
5200;DHT22;2619;47.868;11.892;2022-09-12T05:21:54;9.30;99.90
5200;DHT22;2619;47.868;11.892;2022-09-12T05:24:20;10.00;99.90
5200;DHT22;2619;47.868;11.892;2022-09-12T05:26:46;10.80;99.90
5200;DHT22;2619;47.868;11.892;2022-09-12T05:29:12;11.20;99.90
5200;DHT22;2619;47.868;11.892;2022-09-12T05:31:37;11.90;99.90
5200;DHT22;2619;47.868;11.892;2022-09-12T05:34:03;12.40;99.90
5200;DHT22;2619;47.868;11.892;2022-09-12T05:36:31;13.10;99.90
5200;DHT22;2619;47.868;11.892;2022-09-12T05:39:00;13.60;99.90
5200;DHT22;2619;47.868;11.892;2022-09-12T05:41:28;14.20;99.90
5200;DHT22;2619;47.868;11.892;2022-09-12T05:44:00;14.70;99.90
5200;DHT22;2619;47.868;11.892;2022-09-12T05:46:28;15.20;99.90
5200;DHT22;2619;47.868;11.892;2022-09-12T05:48:55;15.50;99.90
5200;DHT22;2619;47.868;11.892;2022-09-12T05:51:23;15.80;99.90
5200;DHT22;2619;47.868;11.892;2022-09-12T05:53:52;16.10;99.90
5200;DHT22;2619;47.868;11.892;2022-09-12T05:56:20;16.30;99.90
5200;DHT22;2619;47.868;11.892;2022-09-12T05:58:55;16.30;99.90
5200;DHT22;2619;47.868;11.892;2022-09-12T06:01:21;16.80;99.90
5200;DHT22;2619;47.868;11.892;2022-09-12T06:03:49;17.20;99.90
5200;DHT22;2619;47.868;11.892;2022-09-12T06:06:17;17.20;99.90
5200;DHT22;2619;47.868;11.892;2022-09-12T06:08:45;17.60;99.90
5200;DHT22;2619;47.868;11.892;2022-09-12T06:11:19;17.80;99.90
5200;DHT22;2619;47.868;11.892;2022-09-12T06:13:45;17.80;99.90
5200;DHT22;2619;47.868;11.892;2022-09-12T06:16:14;18.20;99.90
5200;DHT22;2619;47.868;11.892;2022-09-12T06:18:41;18.50;99.90
5200;DHT22;2619;47.868;11.892;2022-09-12T06:21:10;18.60;99.90
5200;DHT22;2619;47.868;11.892;2022-09-12T06:23:37;18.50;99.90
5200;DHT22;2619;47.868;11.892;2022-09-12T06:26:04;18.20;99.90
5200;DHT22;2619;47.868;11.892;2022-09-12T06:28:31;18.40;99.90
5200;DHT22;2619;47.868;11.892;2022-09-12T06:31:04;18.80;99.90
5200;DHT22;2619;47.868;11.892;2022-09-12T06:33:34;19.20;99.90
5200;DHT22;2619;47.868;11.892;2022-09-12T06:36:10;19.60;99.90
5200;DHT22;2619;47.868;11.892;2022-09-12T06:38:36;20.00;99.90
5200;DHT22;2619;47.868;11.892;2022-09-12T06:41:07;19.70;99.90
5200;DHT22;2619;47.868;11.892;2022-09-12T06:43:34;19.50;99.90
5200;DHT22;2619;47.868;11.892;2022-09-12T06:46:00;19.50;99.90
5200;DHT22;2619;47.868;11.892;2022-09-12T06:48:26;19.40;99.90
5200;DHT22;2619;47.868;11.892;2022-09-12T06:51:00;19.30;99.90
5200;DHT22;2619;47.868;11.892;2022-09-12T06:53:27;19.10;99.90
5200;DHT22;2619;47.868;11.892;2022-09-12T06:56:08;18.80;99.90
5200;DHT22;2619;47.868;11.892;2022-09-12T06:58:34;18.10;99.90
5200;DHT22;2619;47.868;11.892;2022-09-12T07:01:12;17.50;99.90
5200;DHT22;2619;47.868;11.892;2022-09-12T07:03:38;16.80;99.90
5200;DHT22;2619;47.868;11.892;2022-09-12T07:06:09;16.40;99.90
5200;DHT22;2619;47.868;11.892;2022-09-12T07:08:35;16.10;99.90
5200;DHT22;2619;47.868;11.892;2022-09-12T07:11:14;15.80;99.90
5200;DHT22;2619;47.868;11.892;2022-09-12T07:13:41;15.70;99.90
5200;DHT22;2619;47.868;11.892;2022-09-12T07:16:08;15.60;99.90
5200;DHT22;2619;47.868;11.892;2022-09-12T07:18:35;15.60;99.90
5200;DHT22;2619;47.868;11.892;2022-09-12T07:21:04;15.50;99.90
5200;DHT22;2619;47.868;11.892;2022-09-12T07:23:30;15.50;99.90
5200;DHT22;2619;47.868;11.892;2022-09-12T07:25:56;15.40;99.90
5200;DHT22;2619;47.868;11.892;2022-09-12T07:28:26;15.50;99.90
5200;DHT22;2619;47.868;11.892;2022-09-12T07:30:52;15.50;99.90
5200;DHT22;2619;47.868;11.892;2022-09-12T07:33:27;15.60;99.90
5200;DHT22;2619;47.868;11.892;2022-09-12T07:35:53;15.60;99.90
5200;DHT22;2619;47.868;11.892;2022-09-12T07:38:19;15.70;99.90
5200;DHT22;2619;47.868;11.892;2022-09-12T07:40:45;15.80;99.90
5200;DHT22;2619;47.868;11.892;2022-09-12T07:43:11;15.80;99.90
5200;DHT22;2619;47.868;11.892;2022-09-12T07:45:37;15.90;99.90
5200;DHT22;2619;47.868;11.892;2022-09-12T07:48:05;15.80;99.90
5200;DHT22;2619;47.868;11.892;2022-09-12T07:50:31;16.00;99.90
5200;DHT22;2619;47.868;11.892;2022-09-12T07:52:57;16.20;99.90
5200;DHT22;2619;47.868;11.892;2022-09-12T07:55:23;16.30;99.90
5200;DHT22;2619;47.868;11.892;2022-09-12T07:57:50;16.40;99.90
5200;DHT22;2619;47.868;11.892;2022-09-12T08:00:16;16.50;99.90
5200;DHT22;2619;47.868;11.892;2022-09-12T08:02:42;16.60;99.90
5200;DHT22;2619;47.868;11.892;2022-09-12T08:05:08;16.60;99.90
5200;DHT22;2619;47.868;11.892;2022-09-12T08:07:34;16.70;99.90
5200;DHT22;2619;47.868;11.892;2022-09-12T08:09:59;16.80;99.90
5200;DHT22;2619;47.868;11.892;2022-09-12T08:12:27;17.00;99.90
5200;DHT22;2619;47.868;11.892;2022-09-12T08:14:53;17.10;99.90
5200;DHT22;2619;47.868;11.892;2022-09-12T08:17:19;17.10;99.90
5200;DHT22;2619;47.868;11.892;2022-09-12T08:19:45;17.20;99.90
5200;DHT22;2619;47.868;11.892;2022-09-12T08:22:11;17.20;99.90
5200;DHT22;2619;47.868;11.892;2022-09-12T08:24:37;17.30;99.90
5200;DHT22;2619;47.868;11.892;2022-09-12T08:27:04;17.50;99.90
5200;DHT22;2619;47.868;11.892;2022-09-12T08:29:30;17.60;99.90
5200;DHT22;2619;47.868;11.892;2022-09-12T08:31:55;17.80;99.90
5200;DHT22;2619;47.868;11.892;2022-09-12T08:34:21;17.80;99.90
5200;DHT22;2619;47.868;11.892;2022-09-12T08:36:47;17.90;99.90
5200;DHT22;2619;47.868;11.892;2022-09-12T08:39:12;17.80;99.90
5200;DHT22;2619;47.868;11.892;2022-09-12T08:41:46;17.80;99.90
5200;DHT22;2619;47.868;11.892;2022-09-12T08:49:25;17.90;99.90
5200;DHT22;2619;47.868;11.892;2022-09-12T08:51:51;18.00;99.90
5200;DHT22;2619;47.868;11.892;2022-09-12T08:54:25;18.10;99.90
5200;DHT22;2619;47.868;11.892;2022-09-12T08:56:55;18.20;99.90
5200;DHT22;2619;47.868;11.892;2022-09-12T08:59:22;18.30;99.90
5200;DHT22;2619;47.868;11.892;2022-09-12T09:01:48;18.40;99.90
5200;DHT22;2619;47.868;11.892;2022-09-12T09:04:36;18.40;99.90
5200;DHT22;2619;47.868;11.892;2022-09-12T09:10:02;18.20;99.90
5200;DHT22;2619;47.868;11.892;2022-09-12T09:18:14;18.50;99.90
5200;DHT22;2619;47.868;11.892;2022-09-12T09:20:48;18.60;99.90
5200;DHT22;2619;47.868;11.892;2022-09-12T09:23:21;18.70;99.90
5200;DHT22;2619;47.868;11.892;2022-09-12T09:26:03;18.70;99.90
5200;DHT22;2619;47.868;11.892;2022-09-12T09:28:58;18.60;99.90
5200;DHT22;2619;47.868;11.892;2022-09-12T09:31:37;18.50;99.90
5200;DHT22;2619;47.868;11.892;2022-09-12T09:34:18;18.60;99.90
5200;DHT22;2619;47.868;11.892;2022-09-12T09:36:51;18.40;99.90
5200;DHT22;2619;47.868;11.892;2022-09-12T09:44:57;18.50;99.90
5200;DHT22;2619;47.868;11.892;2022-09-12T09:47:24;18.70;99.90
5200;DHT22;2619;47.868;11.892;2022-09-12T09:49:50;18.70;99.90
5200;DHT22;2619;47.868;11.892;2022-09-12T09:52:20;18.50;99.90
5200;DHT22;2619;47.868;11.892;2022-09-12T09:54:56;18.60;99.90
5200;DHT22;2619;47.868;11.892;2022-09-12T10:05:57;19.10;99.90
5200;DHT22;2619;47.868;11.892;2022-09-12T10:08:27;19.10;99.90
5200;DHT22;2619;47.868;11.892;2022-09-12T10:13:42;19.40;99.90
5200;DHT22;2619;47.868;11.892;2022-09-12T10:16:33;19.50;99.90
5200;DHT22;2619;47.868;11.892;2022-09-12T10:19:01;19.50;99.90
5200;DHT22;2619;47.868;11.892;2022-09-12T10:21:33;19.60;99.90
5200;DHT22;2619;47.868;11.892;2022-09-12T10:26:48;19.50;99.90
5200;DHT22;2619;47.868;11.892;2022-09-12T10:29:16;19.30;99.90
5200;DHT22;2619;47.868;11.892;2022-09-12T10:31:55;19.40;99.90
5200;DHT22;2619;47.868;11.892;2022-09-12T10:34:42;19.50;99.90
5200;DHT22;2619;47.868;11.892;2022-09-12T10:39:57;19.60;99.90
5200;DHT22;2619;47.868;11.892;2022-09-12T10:42:58;19.70;99.90
5200;DHT22;2619;47.868;11.892;2022-09-12T10:47:50;19.60;99.90
5200;DHT22;2619;47.868;11.892;2022-09-12T10:52:54;19.90;99.90
5200;DHT22;2619;47.868;11.892;2022-09-12T10:55:37;19.90;99.90
5200;DHT22;2619;47.868;11.892;2022-09-12T10:58:12;19.90;99.90
5200;DHT22;2619;47.868;11.892;2022-09-12T11:00:46;19.90;99.90
5200;DHT22;2619;47.868;11.892;2022-09-12T11:03:38;19.70;99.90
5200;DHT22;2619;47.868;11.892;2022-09-12T11:06:07;19.80;99.90
5200;DHT22;2619;47.868;11.892;2022-09-12T11:09:08;19.80;99.90
5200;DHT22;2619;47.868;11.892;2022-09-12T11:30:14;20.60;99.90
5200;DHT22;2619;47.868;11.892;2022-09-12T11:35:36;20.50;99.90
5200;DHT22;2619;47.868;11.892;2022-09-12T11:41:02;20.70;99.90
5200;DHT22;2619;47.868;11.892;2022-09-12T11:43:42;20.80;99.90
5200;DHT22;2619;47.868;11.892;2022-09-12T11:51:19;21.20;99.90
5200;DHT22;2619;47.868;11.892;2022-09-12T11:53:50;21.30;99.90
5200;DHT22;2619;47.868;11.892;2022-09-12T11:56:18;21.40;99.90
5200;DHT22;2619;47.868;11.892;2022-09-12T11:58:52;21.50;99.90
5200;DHT22;2619;47.868;11.892;2022-09-12T12:01:24;21.40;99.90
5200;DHT22;2619;47.868;11.892;2022-09-12T12:03:51;21.40;99.90
5200;DHT22;2619;47.868;11.892;2022-09-12T12:06:30;21.30;99.90
5200;DHT22;2619;47.868;11.892;2022-09-12T12:08:56;21.50;99.90
5200;DHT22;2619;47.868;11.892;2022-09-12T12:11:30;21.60;99.90
5200;DHT22;2619;47.868;11.892;2022-09-12T12:14:02;21.80;99.90
5200;DHT22;2619;47.868;11.892;2022-09-12T12:16:33;21.90;99.90
5200;DHT22;2619;47.868;11.892;2022-09-12T12:19:30;21.90;99.90
5200;DHT22;2619;47.868;11.892;2022-09-12T12:22:06;21.80;99.90
5200;DHT22;2619;47.868;11.892;2022-09-12T12:24:32;22.00;99.90
5200;DHT22;2619;47.868;11.892;2022-09-12T12:27:04;22.10;99.90
5200;DHT22;2619;47.868;11.892;2022-09-12T12:29:43;22.30;99.90
5200;DHT22;2619;47.868;11.892;2022-09-12T12:50:07;22.50;99.90
5200;DHT22;2619;47.868;11.892;2022-09-12T12:53:06;22.30;99.90
5200;DHT22;2619;47.868;11.892;2022-09-12T12:58:28;22.40;99.90
5200;DHT22;2619;47.868;11.892;2022-09-12T13:01:15;22.50;99.90
5200;DHT22;2619;47.868;11.892;2022-09-12T13:03:46;22.50;99.90
5200;DHT22;2619;47.868;11.892;2022-09-12T13:06:41;22.60;99.90
5200;DHT22;2619;47.868;11.892;2022-09-12T13:12:29;22.70;99.90
5200;DHT22;2619;47.868;11.892;2022-09-12T13:14:58;22.80;99.90
5200;DHT22;2619;47.868;11.892;2022-09-12T13:17:43;22.90;99.90
5200;DHT22;2619;47.868;11.892;2022-09-12T13:20:25;23.00;99.90
5200;DHT22;2619;47.868;11.892;2022-09-12T13:22:53;23.10;99.90
5200;DHT22;2619;47.868;11.892;2022-09-12T13:25:32;23.10;99.90
5200;DHT22;2619;47.868;11.892;2022-09-12T13:28:02;23.30;99.90
5200;DHT22;2619;47.868;11.892;2022-09-12T13:30:34;23.30;99.90
5200;DHT22;2619;47.868;11.892;2022-09-12T13:33:29;23.30;99.90
5200;DHT22;2619;47.868;11.892;2022-09-12T13:38:30;23.30;99.90
5200;DHT22;2619;47.868;11.892;2022-09-12T13:41:31;23.60;99.90
5200;DHT22;2619;47.868;11.892;2022-09-12T13:44:03;23.80;99.90
5200;DHT22;2619;47.868;11.892;2022-09-12T13:46:34;23.90;99.90
5200;DHT22;2619;47.868;11.892;2022-09-12T13:49:16;24.10;99.90
5200;DHT22;2619;47.868;11.892;2022-09-12T13:51:43;24.20;99.30
5200;DHT22;2619;47.868;11.892;2022-09-12T13:54:16;24.20;98.00
5200;DHT22;2619;47.868;11.892;2022-09-12T13:56:46;24.20;98.30
5200;DHT22;2619;47.868;11.892;2022-09-12T13:59:12;24.00;98.50
5200;DHT22;2619;47.868;11.892;2022-09-12T14:01:43;23.90;98.50
5200;DHT22;2619;47.868;11.892;2022-09-12T14:04:29;23.90;97.90
5200;DHT22;2619;47.868;11.892;2022-09-12T14:07:17;23.90;98.60
5200;DHT22;2619;47.868;11.892;2022-09-12T14:09:52;23.90;98.90
5200;DHT22;2619;47.868;11.892;2022-09-12T14:12:27;23.70;97.40
5200;DHT22;2619;47.868;11.892;2022-09-12T14:14:54;23.60;96.20
5200;DHT22;2619;47.868;11.892;2022-09-12T14:17:27;23.70;98.10
5200;DHT22;2619;47.868;11.892;2022-09-12T14:19:59;23.80;97.50
5200;DHT22;2619;47.868;11.892;2022-09-12T14:22:26;23.80;96.30
5200;DHT22;2619;47.868;11.892;2022-09-12T14:24:55;23.90;97.20
5200;DHT22;2619;47.868;11.892;2022-09-12T14:27:24;23.70;97.60
5200;DHT22;2619;47.868;11.892;2022-09-12T14:30:05;23.60;97.70
5200;DHT22;2619;47.868;11.892;2022-09-12T14:32:34;23.40;97.10
5200;DHT22;2619;47.868;11.892;2022-09-12T14:35:26;23.30;96.20
5200;DHT22;2619;47.868;11.892;2022-09-12T14:37:51;23.20;95.20
5200;DHT22;2619;47.868;11.892;2022-09-12T14:40:19;23.10;95.20
5200;DHT22;2619;47.868;11.892;2022-09-12T14:42:47;23.10;95.30
5200;DHT22;2619;47.868;11.892;2022-09-12T14:45:26;23.10;95.60
5200;DHT22;2619;47.868;11.892;2022-09-12T14:47:53;23.10;97.10
5200;DHT22;2619;47.868;11.892;2022-09-12T14:50:22;23.00;99.90
5200;DHT22;2619;47.868;11.892;2022-09-12T14:53:10;22.90;99.90
5200;DHT22;2619;47.868;11.892;2022-09-12T14:55:52;22.70;99.90
5200;DHT22;2619;47.868;11.892;2022-09-12T14:58:24;22.50;99.90
5200;DHT22;2619;47.868;11.892;2022-09-12T15:06:29;22.10;99.90
5200;DHT22;2619;47.868;11.892;2022-09-12T15:08:59;22.00;99.90
5200;DHT22;2619;47.868;11.892;2022-09-12T15:11:27;21.90;99.90
5200;DHT22;2619;47.868;11.892;2022-09-12T15:13:53;21.90;99.90
5200;DHT22;2619;47.868;11.892;2022-09-12T15:16:18;21.80;99.90
5200;DHT22;2619;47.868;11.892;2022-09-12T15:18:45;21.80;99.90
5200;DHT22;2619;47.868;11.892;2022-09-12T15:21:15;21.70;99.90
5200;DHT22;2619;47.868;11.892;2022-09-12T15:23:43;21.80;99.90
5200;DHT22;2619;47.868;11.892;2022-09-12T15:26:12;21.80;99.90
5200;DHT22;2619;47.868;11.892;2022-09-12T15:28:38;21.80;99.90
5200;DHT22;2619;47.868;11.892;2022-09-12T15:31:19;21.80;99.90
5200;DHT22;2619;47.868;11.892;2022-09-12T15:33:45;21.90;99.90
5200;DHT22;2619;47.868;11.892;2022-09-12T15:36:17;21.90;99.90
5200;DHT22;2619;47.868;11.892;2022-09-12T15:38:44;21.90;99.90
5200;DHT22;2619;47.868;11.892;2022-09-12T15:41:18;21.90;99.90
5200;DHT22;2619;47.868;11.892;2022-09-12T15:43:45;21.80;99.90
5200;DHT22;2619;47.868;11.892;2022-09-12T15:46:12;21.80;99.90
5200;DHT22;2619;47.868;11.892;2022-09-12T15:48:38;21.80;99.90
5200;DHT22;2619;47.868;11.892;2022-09-12T15:51:09;21.80;99.90
5200;DHT22;2619;47.868;11.892;2022-09-12T15:53:35;21.70;99.90
5200;DHT22;2619;47.868;11.892;2022-09-12T15:56:01;21.60;99.90
5200;DHT22;2619;47.868;11.892;2022-09-12T15:58:26;21.80;99.90
5200;DHT22;2619;47.868;11.892;2022-09-12T16:00:52;21.70;99.90
5200;DHT22;2619;47.868;11.892;2022-09-12T16:03:23;21.70;99.90
5200;DHT22;2619;47.868;11.892;2022-09-12T16:05:49;21.60;99.90
5200;DHT22;2619;47.868;11.892;2022-09-12T16:08:19;21.60;99.90
5200;DHT22;2619;47.868;11.892;2022-09-12T16:10:45;21.50;99.90
5200;DHT22;2619;47.868;11.892;2022-09-12T16:13:12;21.50;99.90
5200;DHT22;2619;47.868;11.892;2022-09-12T16:15:37;21.40;99.90
5200;DHT22;2619;47.868;11.892;2022-09-12T16:18:03;21.40;99.90
5200;DHT22;2619;47.868;11.892;2022-09-12T16:20:28;21.30;99.90
5200;DHT22;2619;47.868;11.892;2022-09-12T16:22:54;21.20;99.90
5200;DHT22;2619;47.868;11.892;2022-09-12T16:25:19;21.00;99.90
5200;DHT22;2619;47.868;11.892;2022-09-12T16:27:45;20.90;99.90
5200;DHT22;2619;47.868;11.892;2022-09-12T16:30:11;20.70;99.90
5200;DHT22;2619;47.868;11.892;2022-09-12T16:32:37;20.60;99.90
5200;DHT22;2619;47.868;11.892;2022-09-12T16:35:03;20.40;99.90
5200;DHT22;2619;47.868;11.892;2022-09-12T16:37:30;20.30;99.90
5200;DHT22;2619;47.868;11.892;2022-09-12T16:39:56;20.10;99.90
5200;DHT22;2619;47.868;11.892;2022-09-12T16:42:22;19.80;99.90
5200;DHT22;2619;47.868;11.892;2022-09-12T16:44:48;19.60;99.90
5200;DHT22;2619;47.868;11.892;2022-09-12T16:47:14;19.40;99.90
5200;DHT22;2619;47.868;11.892;2022-09-12T16:49:39;19.10;99.90
5200;DHT22;2619;47.868;11.892;2022-09-12T16:52:05;18.90;99.90
5200;DHT22;2619;47.868;11.892;2022-09-12T16:54:31;18.70;99.90
5200;DHT22;2619;47.868;11.892;2022-09-12T16:56:57;18.50;99.90
5200;DHT22;2619;47.868;11.892;2022-09-12T16:59:22;18.30;99.90
5200;DHT22;2619;47.868;11.892;2022-09-12T17:01:48;18.00;99.90
5200;DHT22;2619;47.868;11.892;2022-09-12T17:04:13;17.80;99.90
5200;DHT22;2619;47.868;11.892;2022-09-12T17:06:39;17.60;99.90
5200;DHT22;2619;47.868;11.892;2022-09-12T17:09:06;17.40;99.90
5200;DHT22;2619;47.868;11.892;2022-09-12T17:11:36;17.20;99.90
5200;DHT22;2619;47.868;11.892;2022-09-12T17:14:04;17.00;99.90
5200;DHT22;2619;47.868;11.892;2022-09-12T17:16:44;16.80;99.90
5200;DHT22;2619;47.868;11.892;2022-09-12T17:19:23;16.60;99.90
5200;DHT22;2619;47.868;11.892;2022-09-12T17:21:51;16.40;99.90
5200;DHT22;2619;47.868;11.892;2022-09-12T17:24:17;16.20;99.90
5200;DHT22;2619;47.868;11.892;2022-09-12T17:26:44;16.10;99.90
5200;DHT22;2619;47.868;11.892;2022-09-12T17:29:11;15.90;99.90
5200;DHT22;2619;47.868;11.892;2022-09-12T17:31:38;15.60;99.90
5200;DHT22;2619;47.868;11.892;2022-09-12T17:34:04;15.40;99.90
5200;DHT22;2619;47.868;11.892;2022-09-12T17:36:30;15.30;99.90
5200;DHT22;2619;47.868;11.892;2022-09-12T17:38:57;15.20;99.90
5200;DHT22;2619;47.868;11.892;2022-09-12T17:41:25;15.00;99.90
5200;DHT22;2619;47.868;11.892;2022-09-12T17:43:54;14.80;99.90
5200;DHT22;2619;47.868;11.892;2022-09-12T17:46:22;14.70;99.90
5200;DHT22;2619;47.868;11.892;2022-09-12T17:48:52;14.50;99.90
5200;DHT22;2619;47.868;11.892;2022-09-12T17:51:18;14.50;99.90
5200;DHT22;2619;47.868;11.892;2022-09-12T17:53:44;14.40;99.90
5200;DHT22;2619;47.868;11.892;2022-09-12T17:56:10;14.20;99.90
5200;DHT22;2619;47.868;11.892;2022-09-12T17:58:36;14.10;99.90
5200;DHT22;2619;47.868;11.892;2022-09-12T18:01:09;14.20;99.90
5200;DHT22;2619;47.868;11.892;2022-09-12T18:03:55;14.00;99.90
5200;DHT22;2619;47.868;11.892;2022-09-12T18:06:22;13.90;99.90
5200;DHT22;2619;47.868;11.892;2022-09-12T18:08:48;13.80;99.90
5200;DHT22;2619;47.868;11.892;2022-09-12T18:11:14;13.80;99.90
5200;DHT22;2619;47.868;11.892;2022-09-12T18:13:39;13.70;99.90
5200;DHT22;2619;47.868;11.892;2022-09-12T18:16:07;13.70;99.90
5200;DHT22;2619;47.868;11.892;2022-09-12T18:18:34;13.50;99.90
5200;DHT22;2619;47.868;11.892;2022-09-12T18:21:02;13.40;99.90
5200;DHT22;2619;47.868;11.892;2022-09-12T18:23:28;13.40;99.90
5200;DHT22;2619;47.868;11.892;2022-09-12T18:26:02;13.30;99.90
5200;DHT22;2619;47.868;11.892;2022-09-12T18:28:31;13.30;99.90
5200;DHT22;2619;47.868;11.892;2022-09-12T18:30:57;13.20;99.90
5200;DHT22;2619;47.868;11.892;2022-09-12T18:33:22;13.00;99.90
5200;DHT22;2619;47.868;11.892;2022-09-12T18:35:48;12.90;99.90
5200;DHT22;2619;47.868;11.892;2022-09-12T18:38:13;12.80;99.90